createdAt,value
2023-02-16T00:00:28.869Z,6.40
2023-02-16T00:02:56.146Z,7.07
2023-02-16T00:05:33.512Z,6.50
2023-02-16T00:08:02.056Z,6.93
2023-02-16T00:10:35.506Z,6.95
2023-02-16T00:13:21.910Z,6.28
2023-02-16T00:15:49.129Z,7.00
2023-02-16T00:18:22.023Z,7.05
2023-02-16T00:20:50.120Z,7.22
2023-02-16T00:23:17.272Z,8.68
2023-02-16T00:25:44.398Z,7.07
2023-02-16T00:28:18.684Z,7.10
2023-02-16T00:30:46.685Z,7.43
2023-02-16T00:33:17.437Z,8.35
2023-02-16T00:35:45.088Z,8.25
2023-02-16T00:38:13.522Z,8.13
2023-02-16T00:40:42.427Z,8.60
2023-02-16T00:43:27.390Z,8.15
2023-02-16T00:45:57.845Z,8.52
2023-02-16T00:48:25.476Z,8.25
2023-02-16T00:50:52.514Z,8.68
2023-02-16T00:53:19.557Z,7.97
2023-02-16T00:55:46.926Z,8.23
2023-02-16T00:58:24.773Z,6.70
2023-02-16T01:00:55.873Z,5.88
2023-02-16T01:03:29.024Z,6.53
2023-02-16T01:06:15.442Z,7.03
2023-02-16T01:09:01.340Z,6.43
2023-02-16T01:11:29.105Z,6.45
2023-02-16T01:13:57.706Z,6.30
2023-02-16T01:16:38.101Z,7.15
2023-02-16T01:19:05.736Z,6.30
2023-02-16T01:21:33.055Z,6.32
2023-02-16T01:26:43.528Z,6.30
2023-02-16T01:29:20.204Z,6.57
2023-02-16T01:31:48.032Z,6.10
2023-02-16T01:34:16.093Z,6.78
2023-02-16T01:36:47.303Z,6.32
2023-02-16T01:39:21.040Z,6.25
2023-02-16T01:42:11.005Z,5.50
2023-02-16T01:44:50.374Z,5.75
2023-02-16T01:47:47.802Z,5.90
2023-02-16T01:50:19.898Z,5.90
2023-02-16T01:53:20.316Z,5.50
2023-02-16T01:55:55.655Z,5.32
2023-02-16T01:58:37.969Z,5.40
2023-02-16T02:01:05.337Z,5.13
2023-02-16T02:03:53.873Z,4.90
2023-02-16T02:06:32.811Z,5.07
2023-02-16T02:09:22.384Z,4.55
2023-02-16T02:12:26.275Z,4.47
2023-02-16T02:14:53.527Z,4.20
2023-02-16T02:17:22.277Z,4.95
2023-02-16T02:20:07.393Z,4.35
2023-02-16T02:22:52.717Z,4.32
2023-02-16T02:25:54.184Z,4.32
2023-02-16T02:28:39.966Z,4.03
2023-02-16T02:31:13.585Z,4.45
2023-02-16T02:34:30.464Z,4.35
2023-02-16T02:37:36.493Z,4.40
2023-02-16T02:40:06.804Z,4.90
2023-02-16T02:42:41.365Z,5.28
2023-02-16T02:45:32.631Z,4.72
2023-02-16T02:47:59.959Z,4.38
2023-02-16T02:51:08.297Z,4.68
2023-02-16T02:53:45.027Z,4.18
2023-02-16T02:56:32.570Z,4.38
2023-02-16T02:59:25.527Z,4.80
2023-02-16T03:01:59.216Z,4.53
2023-02-16T03:04:28.976Z,4.25
2023-02-16T03:06:58.773Z,4.88
2023-02-16T03:09:26.288Z,4.50
2023-02-16T03:12:14.052Z,4.80
2023-02-16T03:14:59.440Z,4.47
2023-02-16T03:17:52.967Z,4.85
2023-02-16T03:20:39.593Z,5.35
2023-02-16T03:23:26.938Z,4.13
2023-02-16T03:26:13.160Z,3.97
2023-02-16T03:29:02.843Z,4.13
2023-02-16T03:31:38.635Z,4.43
2023-02-16T03:34:07.216Z,4.63
2023-02-16T03:36:39.261Z,4.40
2023-02-16T03:39:08.433Z,4.30
2023-02-16T03:41:43.190Z,4.63
2023-02-16T03:44:10.748Z,4.32
2023-02-16T03:46:37.928Z,4.47
2023-02-16T03:49:05.104Z,3.85
2023-02-16T03:51:32.367Z,4.43
2023-02-16T03:53:59.456Z,4.53
2023-02-16T03:56:26.738Z,4.60
2023-02-16T03:58:55.091Z,4.75
2023-02-16T04:01:22.236Z,4.60
2023-02-16T04:03:49.695Z,4.75
2023-02-16T04:06:16.944Z,4.45
2023-02-16T04:08:44.175Z,5.60
2023-02-16T04:11:29.961Z,5.07
2023-02-16T04:13:57.142Z,5.03
2023-02-16T04:16:24.423Z,5.28
2023-02-16T04:18:51.612Z,5.32
2023-02-16T04:21:18.805Z,5.68
2023-02-16T04:23:45.894Z,5.45
2023-02-16T04:26:13.247Z,4.70
2023-02-16T04:28:40.315Z,5.47
2023-02-16T04:31:07.984Z,5.25
2023-02-16T04:33:35.176Z,3.97
2023-02-16T04:36:02.531Z,4.90
2023-02-16T04:38:29.650Z,5.05
2023-02-16T04:40:56.745Z,5.53
2023-02-16T04:43:23.811Z,5.65
2023-02-16T04:45:50.997Z,4.93
2023-02-16T04:48:18.122Z,5.55
2023-02-16T04:50:45.145Z,4.97
2023-02-16T04:53:12.278Z,5.03
2023-02-16T04:55:39.513Z,5.78
2023-02-16T04:58:06.571Z,5.45
2023-02-16T05:00:36.269Z,5.75
2023-02-16T05:03:03.951Z,5.03
2023-02-16T05:05:31.715Z,5.32
2023-02-16T05:07:58.881Z,5.72
2023-02-16T05:10:26.155Z,6.25
2023-02-16T05:13:12.148Z,6.35
2023-02-16T05:15:39.650Z,5.07
2023-02-16T05:18:06.708Z,5.10
2023-02-16T05:20:52.373Z,5.05
2023-02-16T05:23:19.505Z,4.82
2023-02-16T05:25:46.707Z,4.47
2023-02-16T05:28:13.810Z,5.20
2023-02-16T05:30:40.963Z,5.72
2023-02-16T05:33:08.065Z,5.90
2023-02-16T05:35:36.232Z,6.55
2023-02-16T05:38:03.450Z,6.15
2023-02-16T05:40:30.572Z,5.57
2023-02-16T05:42:58.333Z,4.80
2023-02-16T05:45:25.400Z,5.47
2023-02-16T05:47:53.232Z,5.10
2023-02-16T05:50:20.333Z,5.30
2023-02-16T05:52:47.363Z,5.05
2023-02-16T05:55:14.442Z,5.05
2023-02-16T05:57:41.438Z,4.90
2023-02-16T06:00:09.451Z,5.18
2023-02-16T06:02:36.720Z,5.45
2023-02-16T06:05:03.946Z,4.80
2023-02-16T06:07:30.989Z,5.38
2023-02-16T06:09:58.047Z,5.53
2023-02-16T06:12:25.112Z,5.00
2023-02-16T06:14:52.179Z,5.53
2023-02-16T06:17:19.230Z,5.05
2023-02-16T06:19:46.283Z,5.22
2023-02-16T06:22:13.335Z,4.53
2023-02-16T06:24:40.471Z,5.50
2023-02-16T06:27:07.679Z,5.00
2023-02-16T06:29:34.759Z,4.97
2023-02-16T06:32:02.081Z,4.95
2023-02-16T06:34:29.313Z,4.90
2023-02-16T06:36:56.413Z,5.22
2023-02-16T06:39:23.461Z,5.55
2023-02-16T06:41:50.578Z,4.97
2023-02-16T06:44:18.207Z,5.05
2023-02-16T06:46:47.503Z,4.10
2023-02-16T06:49:20.704Z,4.57
2023-02-16T06:51:49.666Z,4.60
2023-02-16T06:54:17.764Z,5.47
2023-02-16T06:56:44.926Z,5.00
2023-02-16T06:59:13.350Z,4.43
2023-02-16T07:01:40.383Z,4.80
2023-02-16T07:04:07.770Z,4.30
2023-02-16T07:06:35.346Z,3.83
2023-02-16T07:09:03.848Z,4.18
2023-02-16T07:11:30.878Z,4.45
2023-02-16T07:13:58.570Z,4.70
2023-02-16T07:16:25.822Z,4.80
2023-02-16T07:18:52.892Z,4.47
2023-02-16T07:21:20.097Z,5.07
2023-02-16T07:23:47.442Z,4.57
2023-02-16T07:26:14.770Z,4.28
2023-02-16T07:28:41.938Z,4.43
2023-02-16T07:31:15.131Z,4.13
2023-02-16T07:33:42.833Z,4.05
2023-02-16T07:36:11.948Z,4.20
2023-02-16T07:38:42.056Z,4.57
2023-02-16T07:41:10.334Z,4.60
2023-02-16T07:43:39.408Z,4.38
2023-02-16T07:46:06.711Z,4.32
2023-02-16T07:48:33.956Z,4.78
2023-02-16T07:51:01.826Z,4.90
2023-02-16T07:53:28.979Z,4.45
2023-02-16T07:55:56.709Z,4.60
2023-02-16T07:58:30.079Z,4.85
2023-02-16T08:01:08.285Z,4.72
2023-02-16T08:03:35.614Z,4.28
2023-02-16T08:06:04.407Z,5.07
2023-02-16T08:08:32.490Z,4.25
2023-02-16T08:10:59.770Z,4.07
2023-02-16T08:13:26.930Z,4.03
2023-02-16T08:15:54.027Z,4.07
2023-02-16T08:18:21.253Z,4.03
2023-02-16T08:21:02.758Z,3.90
2023-02-16T08:23:31.680Z,4.18
2023-02-16T08:25:59.252Z,4.38
2023-02-16T08:28:28.837Z,4.28
2023-02-16T08:30:56.412Z,3.70
2023-02-16T08:33:23.711Z,4.18
2023-02-16T08:35:50.924Z,4.03
2023-02-16T08:38:18.009Z,4.47
2023-02-16T08:40:50.375Z,4.00
2023-02-16T08:43:17.448Z,4.15
2023-02-16T08:45:47.882Z,4.55
2023-02-16T08:48:15.503Z,4.32
2023-02-16T08:50:53.613Z,4.22
2023-02-16T08:53:25.271Z,4.97
2023-02-16T08:55:56.469Z,4.80
2023-02-16T08:58:24.607Z,5.13
2023-02-16T09:00:51.834Z,4.60
2023-02-16T09:03:19.802Z,3.97
2023-02-16T09:05:49.015Z,4.70
2023-02-16T09:08:19.535Z,4.68
2023-02-16T09:10:47.406Z,4.63
2023-02-16T09:13:15.133Z,3.90
2023-02-16T09:15:44.351Z,4.30
2023-02-16T09:18:14.200Z,4.17
2023-02-16T09:20:46.905Z,4.20
2023-02-16T09:23:14.148Z,4.38
2023-02-16T09:25:42.790Z,4.60
2023-02-16T09:28:12.492Z,4.72
2023-02-16T09:30:40.344Z,4.30
2023-02-16T09:33:08.189Z,4.90
2023-02-16T09:35:36.238Z,4.15
2023-02-16T09:38:03.298Z,4.60
2023-02-16T09:40:31.196Z,4.20
2023-02-16T09:43:29.235Z,4.30
2023-02-16T09:45:58.951Z,4.00
2023-02-16T09:48:37.356Z,4.07
2023-02-16T09:51:08.497Z,4.03
2023-02-16T09:53:39.599Z,3.90
2023-02-16T09:56:10.216Z,4.00
2023-02-16T09:59:11.678Z,4.50
2023-02-16T10:01:55.757Z,4.53
2023-02-16T10:04:48.411Z,4.15
2023-02-16T10:07:45.505Z,4.10
2023-02-16T10:10:21.186Z,3.95
2023-02-16T10:13:03.321Z,4.15
2023-02-16T10:15:32.004Z,4.05
2023-02-16T10:18:22.916Z,4.45
2023-02-16T10:20:56.550Z,3.78
2023-02-16T10:23:49.029Z,4.57
2023-02-16T10:26:36.839Z,3.80
2023-02-16T10:29:15.826Z,3.90
2023-02-16T10:32:10.431Z,4.45
2023-02-16T10:35:15.726Z,4.40
2023-02-16T10:38:03.834Z,3.83
2023-02-16T10:40:53.093Z,3.80
2023-02-16T10:43:49.182Z,4.00
2023-02-16T10:46:24.855Z,3.88
2023-02-16T10:48:57.847Z,4.00
2023-02-16T10:51:33.144Z,4.40
2023-02-16T10:54:08.907Z,4.75
2023-02-16T10:56:57.407Z,4.85
2023-02-16T10:59:47.363Z,4.60
2023-02-16T11:02:47.407Z,5.15
2023-02-16T11:05:38.374Z,4.90
2023-02-16T11:08:08.080Z,4.38
2023-02-16T11:10:53.821Z,4.72
2023-02-16T11:13:34.062Z,4.50
2023-02-16T11:16:19.398Z,4.65
2023-02-16T11:18:59.383Z,5.22
2023-02-16T11:21:55.204Z,4.97
2023-02-16T11:24:37.362Z,4.47
2023-02-16T11:27:21.405Z,4.65
2023-02-16T11:29:50.847Z,5.43
2023-02-16T11:32:22.395Z,5.07
2023-02-16T11:34:53.936Z,5.35
2023-02-16T11:37:34.889Z,4.60
2023-02-16T11:40:20.184Z,5.25
2023-02-16T11:42:57.585Z,4.70
2023-02-16T11:45:30.899Z,5.13
2023-02-16T11:48:11.043Z,4.90
2023-02-16T11:50:42.794Z,5.30
2023-02-16T11:55:45.419Z,4.75
2023-02-16T11:58:27.814Z,4.72
2023-02-16T12:01:25.985Z,5.35
2023-02-16T12:04:22.396Z,5.53
2023-02-16T12:07:23.109Z,5.15
2023-02-16T12:10:13.397Z,5.07
2023-02-16T12:12:54.981Z,5.95
2023-02-16T12:15:51.855Z,5.68
2023-02-16T12:18:35.900Z,4.80
2023-02-16T12:21:34.857Z,6.00
2023-02-16T12:24:30.300Z,6.80
2023-02-16T12:27:02.852Z,6.55
2023-02-16T12:29:59.327Z,7.00
2023-02-16T12:33:08.287Z,6.32
2023-02-16T12:36:12.499Z,6.15
2023-02-16T12:38:48.375Z,5.82
2023-02-16T12:41:32.271Z,6.28
2023-02-16T12:44:16.301Z,5.60
2023-02-16T12:46:46.946Z,5.93
2023-02-16T12:49:21.750Z,5.80
2023-02-16T12:51:55.804Z,5.78
2023-02-16T12:54:30.449Z,6.13
2023-02-16T12:57:10.228Z,6.50
2023-02-16T13:00:07.446Z,5.82
2023-02-16T13:02:46.347Z,6.18
2023-02-16T13:05:36.517Z,5.95
2023-02-16T13:08:30.307Z,5.97
2023-02-16T13:11:14.432Z,5.63
2023-02-16T13:13:42.910Z,5.97
2023-02-16T13:16:43.041Z,6.00
2023-02-16T13:19:14.845Z,6.82
2023-02-16T13:21:54.040Z,6.57
2023-02-16T13:24:27.566Z,6.30
2023-02-16T13:27:18.968Z,6.53
2023-02-16T13:30:06.849Z,6.43
2023-02-16T13:32:41.450Z,5.95
2023-02-16T13:36:03.103Z,6.13
2023-02-16T13:39:13.664Z,5.87
2023-02-16T13:42:14.694Z,6.38
2023-02-16T13:44:49.626Z,6.32
2023-02-16T13:47:31.975Z,6.07
2023-02-16T13:50:08.734Z,6.45
2023-02-16T13:52:40.475Z,6.57
2023-02-16T13:55:28.780Z,6.88
2023-02-16T13:58:07.888Z,6.28
2023-02-16T14:00:45.282Z,6.93
2023-02-16T14:03:16.605Z,6.47
2023-02-16T14:05:55.905Z,6.90
2023-02-16T14:08:31.357Z,7.53
2023-02-16T14:11:05.757Z,7.90
2023-02-16T14:13:46.090Z,7.50
2023-02-16T14:16:20.882Z,6.95
2023-02-16T14:18:55.179Z,8.05
2023-02-16T14:21:44.184Z,8.13
2023-02-16T14:24:30.394Z,7.45
2023-02-16T14:27:04.420Z,8.10
2023-02-16T14:30:16.737Z,8.82
2023-02-16T14:32:51.929Z,8.38
2023-02-16T14:35:29.574Z,8.88
2023-02-16T14:38:04.854Z,8.98
2023-02-16T14:40:55.509Z,9.15
2023-02-16T14:43:41.034Z,9.07
2023-02-16T14:46:39.331Z,9.73
2023-02-16T14:49:28.311Z,9.18
2023-02-16T14:52:37.742Z,8.45
2023-02-16T14:56:08.679Z,8.27
2023-02-16T14:59:05.692Z,7.57
2023-02-16T15:01:45.817Z,8.43
2023-02-16T15:04:31.686Z,8.10
2023-02-16T15:07:05.277Z,8.45
2023-02-16T15:09:34.986Z,8.07
2023-02-16T15:12:24.182Z,7.95
2023-02-16T15:15:10.456Z,8.50
2023-02-16T15:17:45.035Z,8.20
2023-02-16T15:20:28.648Z,8.23
2023-02-16T15:23:03.408Z,8.27
2023-02-16T15:25:40.682Z,7.15
2023-02-16T15:28:10.814Z,8.15
2023-02-16T15:30:41.732Z,7.70
2023-02-16T15:33:39.074Z,7.95
2023-02-16T15:36:18.167Z,7.28
2023-02-16T15:39:05.827Z,7.63
2023-02-16T15:41:37.278Z,7.60
2023-02-16T15:44:07.744Z,7.05
2023-02-16T15:46:43.769Z,8.57
2023-02-16T15:49:22.439Z,7.60
2023-02-16T15:51:49.794Z,7.55
2023-02-16T15:54:44.161Z,8.13
2023-02-16T15:57:39.258Z,7.50
2023-02-16T16:00:21.159Z,7.72
2023-02-16T16:02:52.853Z,7.72
2023-02-16T16:05:30.125Z,8.20
2023-02-16T16:07:58.820Z,8.27
2023-02-16T16:10:33.967Z,7.32
2023-02-16T16:13:28.108Z,7.47
2023-02-16T16:16:01.876Z,7.72
2023-02-16T16:18:37.454Z,7.97
2023-02-16T16:21:15.379Z,7.15
2023-02-16T16:24:09.003Z,7.55
2023-02-16T16:26:58.697Z,7.05
2023-02-16T16:29:41.961Z,7.35
2023-02-16T16:32:30.332Z,6.93
2023-02-16T16:34:57.461Z,7.63
2023-02-16T16:37:37.084Z,7.03
2023-02-16T16:40:31.578Z,7.65
2023-02-16T16:43:04.871Z,7.72
2023-02-16T16:45:44.971Z,7.60
2023-02-16T16:48:32.418Z,7.82
2023-02-16T16:51:39.875Z,7.30
2023-02-16T16:54:09.133Z,6.80
2023-02-16T16:56:42.284Z,7.55
2023-02-16T16:59:09.369Z,7.53
2023-02-16T17:01:36.516Z,7.47
2023-02-16T17:04:03.641Z,7.28
2023-02-16T17:06:30.769Z,8.07
2023-02-16T17:08:57.842Z,8.38
2023-02-16T17:11:33.256Z,8.15
2023-02-16T17:14:14.620Z,8.18
2023-02-16T17:16:46.073Z,8.05
2023-02-16T17:19:15.776Z,7.95
2023-02-16T17:21:44.972Z,8.65
2023-02-16T17:24:14.125Z,8.75
2023-02-16T17:26:42.082Z,8.57
2023-02-16T17:29:09.203Z,7.93
2023-02-16T17:31:36.308Z,8.55
2023-02-16T17:34:03.500Z,8.90
2023-02-16T17:36:30.649Z,8.82
2023-02-16T17:39:00.980Z,8.70
2023-02-16T17:41:29.895Z,8.88
2023-02-16T17:43:56.993Z,8.98
2023-02-16T17:46:25.589Z,8.80
2023-02-16T17:48:55.443Z,7.65
2023-02-16T17:51:25.556Z,8.48
2023-02-16T17:53:52.950Z,7.60
2023-02-16T17:56:24.098Z,7.35
2023-02-16T17:58:52.150Z,7.18
2023-02-16T18:01:20.763Z,8.07
2023-02-16T18:03:48.385Z,8.63
2023-02-16T18:06:18.369Z,8.98
2023-02-16T18:08:46.039Z,7.47
2023-02-16T18:11:13.233Z,8.20
2023-02-16T18:13:40.725Z,7.57
2023-02-16T18:16:08.481Z,7.75
2023-02-16T18:18:39.176Z,8.23
2023-02-16T18:21:07.586Z,7.95
2023-02-16T18:23:34.772Z,8.25
2023-02-16T18:26:01.917Z,8.70
2023-02-16T18:28:32.343Z,8.38
2023-02-16T18:31:00.658Z,7.90
2023-02-16T18:33:28.441Z,8.20
2023-02-16T18:35:57.749Z,8.70
2023-02-16T18:38:25.675Z,8.32
2023-02-16T18:40:54.983Z,7.97
2023-02-16T18:43:22.872Z,7.35
2023-02-16T18:45:50.413Z,8.30
2023-02-16T18:48:17.616Z,8.50
2023-02-16T18:50:45.125Z,8.57
2023-02-16T18:53:12.269Z,7.28
2023-02-16T18:55:39.615Z,8.45
2023-02-16T18:58:08.556Z,8.55
2023-02-16T19:00:37.129Z,8.43
2023-02-16T19:03:04.564Z,8.50
2023-02-16T19:05:33.184Z,8.43
2023-02-16T19:08:01.670Z,7.97
2023-02-16T19:10:28.716Z,6.75
2023-02-16T19:12:55.859Z,8.02
2023-02-16T19:15:23.112Z,8.32
2023-02-16T19:17:51.485Z,8.07
2023-02-16T19:20:19.394Z,8.40
2023-02-16T19:22:47.359Z,8.65
2023-02-16T19:25:15.490Z,7.75
2023-02-16T19:27:43.836Z,8.52
2023-02-16T19:30:12.312Z,9.18
2023-02-16T19:32:41.252Z,8.52
2023-02-16T19:35:11.280Z,8.48
2023-02-16T19:37:38.880Z,8.55
2023-02-16T19:40:09.383Z,8.27
2023-02-16T19:42:37.686Z,9.15
2023-02-16T19:45:05.499Z,8.60
2023-02-16T19:47:32.972Z,8.82
2023-02-16T19:50:00.139Z,8.85
2023-02-16T19:52:27.250Z,9.65
2023-02-16T19:54:54.280Z,9.20
2023-02-16T19:57:21.407Z,9.00
2023-02-16T19:59:48.468Z,8.48
2023-02-16T20:02:15.869Z,8.40
2023-02-16T20:04:44.356Z,8.98
2023-02-16T20:07:11.922Z,10.30
2023-02-16T20:09:39.153Z,10.75
2023-02-16T20:12:06.880Z,10.57
2023-02-16T20:14:34.047Z,9.88
2023-02-16T20:17:01.369Z,10.40
2023-02-16T20:19:28.405Z,10.65
2023-02-16T20:21:55.589Z,10.23
2023-02-16T20:24:22.724Z,10.27
2023-02-16T20:26:52.056Z,10.18
2023-02-16T20:29:21.547Z,10.55
2023-02-16T20:31:52.922Z,9.93
2023-02-16T20:34:21.054Z,10.40
2023-02-16T20:36:48.703Z,9.07
2023-02-16T20:39:16.023Z,9.77
2023-02-16T20:41:43.382Z,9.77
2023-02-16T20:44:11.677Z,10.10
2023-02-16T20:46:40.285Z,10.63
2023-02-16T20:49:08.754Z,9.85
2023-02-16T20:51:38.279Z,10.02
2023-02-16T20:54:19.299Z,10.23
2023-02-16T20:56:46.741Z,9.52
2023-02-16T20:59:13.897Z,9.52
2023-02-16T21:01:46.583Z,10.25
2023-02-16T21:04:17.231Z,10.65
2023-02-16T21:06:45.566Z,10.05
2023-02-16T21:09:13.820Z,12.60
2023-02-16T21:11:41.765Z,15.85
2023-02-16T21:14:11.572Z,17.80
2023-02-16T21:16:39.605Z,18.23
2023-02-16T21:19:17.252Z,18.85
2023-02-16T21:21:49.502Z,18.70
2023-02-16T21:24:16.593Z,17.83
2023-02-16T21:26:43.849Z,14.77
2023-02-16T21:29:11.040Z,16.08
2023-02-16T21:31:38.752Z,14.77
2023-02-16T21:34:06.160Z,12.80
2023-02-16T21:36:33.313Z,11.98
2023-02-16T21:39:45.077Z,13.38
2023-02-16T21:42:12.470Z,11.43
2023-02-16T21:44:43.214Z,12.25
2023-02-16T21:47:32.532Z,11.48
2023-02-16T21:50:00.150Z,10.98
2023-02-16T21:52:27.806Z,11.43
2023-02-16T21:55:29.220Z,11.68
2023-02-16T21:57:59.616Z,11.35
2023-02-16T22:00:26.825Z,11.05
2023-02-16T22:02:54.278Z,10.27
2023-02-16T22:05:23.179Z,9.77
2023-02-16T22:07:50.379Z,9.40
2023-02-16T22:10:17.542Z,9.90
2023-02-16T22:12:44.611Z,10.88
2023-02-16T22:15:11.845Z,10.13
2023-02-16T22:17:38.956Z,10.70
2023-02-16T22:20:06.862Z,10.40
2023-02-16T22:22:35.135Z,10.45
2023-02-16T22:25:02.214Z,9.60
2023-02-16T22:27:29.454Z,10.60
2023-02-16T22:29:56.591Z,9.95
2023-02-16T22:32:23.681Z,9.38
2023-02-16T22:34:50.772Z,10.02
2023-02-16T22:37:17.855Z,9.60
2023-02-16T22:39:44.871Z,9.68
2023-02-16T22:42:11.996Z,10.38
2023-02-16T22:44:39.146Z,11.63
2023-02-16T22:47:06.190Z,10.55
2023-02-16T22:49:33.287Z,10.07
2023-02-16T22:52:00.345Z,10.25
2023-02-16T22:54:27.521Z,9.88
2023-02-16T22:56:54.685Z,9.65
2023-02-16T22:59:30.422Z,9.20
2023-02-16T23:01:57.481Z,9.18
2023-02-16T23:04:24.672Z,8.93
2023-02-16T23:06:51.772Z,7.82
2023-02-16T23:09:22.169Z,8.95
2023-02-16T23:11:50.498Z,8.13
2023-02-16T23:14:19.488Z,7.80
2023-02-16T23:16:52.140Z,7.82
2023-02-16T23:19:26.118Z,7.63
2023-02-16T23:21:54.474Z,7.88
2023-02-16T23:24:23.563Z,7.97
2023-02-16T23:26:51.465Z,8.35
2023-02-16T23:34:27.290Z,8.50
2023-02-16T23:36:54.429Z,9.43
2023-02-16T23:39:21.673Z,9.13
2023-02-16T23:41:48.751Z,9.35
2023-02-16T23:44:15.916Z,9.35
2023-02-16T23:46:43.065Z,9.15
2023-02-16T23:49:10.202Z,8.93
2023-02-16T23:51:45.549Z,8.32
2023-02-16T23:54:12.616Z,7.72
2023-02-16T23:56:40.415Z,7.95
2023-02-16T23:59:07.590Z,8.05
